Welcome to our Virtual Airline
Sign-in:

Flight MFC6161

  • Submitted By: John Dean
  • Departure Airport: Hydaburg SPB (HYG)
  • Arrival Airport: Point Baker SPB (KPB)
  • Aircraft: CESSNA 185 (NC185MM)
  • Flight Time: 00.59.55
  • Date Submitted: 2018/05/06
  • Route: FOLLOW THE TOUR FP
  • Status: Accepted
Flight Details
Gross Revenue:
(3 load / $ 52.00 per unit
$ 156.00
Fuel Cost:
(31.7515 fuel used @ 5.1 / unit)
$ 161.93

Additional Log Information:

View Log

FS[14:23] ----- Flight Opened -----
FS[14:23] Cigar Box - 1.1.4.0
FS[14:23] FS: FSX
FS[14:23] FSUIPC: v4.973
FS[14:23] Flight Number: MFC6161
FS[14:23] FS Aircraft: C185F SKYWAGON AMPHIBIAN BWEP N185MM
FS[14:23] FS Model: C185
FS[14:23] FS Type: Cessna
FS[14:23] Departure: HYG
FS[14:23] Arrival: KPB
FS[14:23] Flight Level: 2500
FS[14:23] Flight Type: H
FS[14:23] Passengers: 3
FS[14:23] FOB: 384 lbs
FS[14:23] Gate: n/a
FS[14:23] Crash Detection: Disabled
FS[14:23] Crash Detection Aircraft: Disabled
FS[14:23] Engines: 1 Piston
FS[14:23] NOTE: Boarding has started
FS[14:23] FS: Paused
FS[14:23] Parking Brake: Engaged
FS[14:23] Landing Gear: Retracted
FS[14:23] Light Data: Beacon ON
FS[14:23] Main Door Closed
FS[14:23] COM1: 128.30
FS[14:23] COM2: 127.80
FS[14:23] Transponder: 1200
FS[14:23] NAV1: 113.70
FS[14:23] NAV2: 110.60
FS[14:23] ADF1: 284.0
FS[14:23] ADF2: 240.0
FS[14:23] Navigation Mode: GPS
FS[14:23] Navigation Mode: GPS
FS[14:23] FS: Unpaused
FS[14:23] Engine 1: Started
FS[14:23] Light Data: Navigation ON
FS[14:23] Light Data: Landing lights ON
FS[14:23] Light Data: Taxi lights ON
FS[14:23] Light Data: Strobe lights ON
FS[14:23] Light Data: Instrument lights ON
FS[14:23] Light Data: Recognition lights ON
FS[14:23] Light Data: Wing lights ON
FS[14:23] Light Data: Logo lights ON
FS[14:23] Light Data: Cabin lights ON
FS[14:24] COM1: 122.90
FS[14:24] Parking Brake: Released
FS[14:24] NOTE: Taxi started
FS[14:25] Flaps: Position 1
FS[14:25] NOTE: ----- TAKE OFF -----
FS[14:25] GS: 64 knots
FS[14:25] TAS: 65 knots
FS[14:25] IAS: 65 knots
FS[14:25] VS: 39 fpm
FS[14:25] FOB: 383 lbs
FS[14:25] Heading: 321°
FS[14:25] Pitch: 5°
FS[14:25] Bank: 0°
FS[14:25] Aircraft Weight: 2488.21 lbs
FS[14:25] Nearest Airport: HYG
FS[14:25] Distance: 0.56 miles
FS[14:25] Runway: ???
FS[14:25] Ground Surface: Water
FS[14:25] Ground Condition: Normal
FS[14:25] NOTE: Weather Report
FS[14:25] Wind Heading: 338°
FS[14:25] Wind Speed: 0 knots
FS[14:25] OAT: 15° C
FS[14:25] TAT: 15° C
FS[14:25] Precipitation: None
FS[14:25] Dew Point: 5° C
FS[14:25] Visibility: 62 miles
FS[14:25] METAR: No METAR available for HYG.
FS[14:25] NOTE: Climb started
FS[14:25] Autopilot: Engaged
FS[14:25] AGL: 55 ft
FS[14:25] AMSL: 55 ft
FS[14:25] Flaps: Position 0
FS[14:25] GS: 77 knots
FS[14:25] TAS: 79 knots
FS[14:25] IAS: 79 knots
FS[14:25] VS: 1279 fpm
FS[14:25] View Mode: Spot Plane
FS[14:28] NOTE: TOC reached
FS[14:28] NOTE: Cruise started
FS[14:28] GS: 128 knots
FS[14:28] TAS: 129 knots
FS[14:28] IAS: 125 knots
FS[14:28] VS: 78 fpm
FS[14:28] FOB: 378 lbs
FS[14:28] Heading: 304°
FS[14:28] Pitch: 0°
FS[14:28] Bank: 0°
FS[14:28] Aircraft Weight: 2484.06 lbs
FS[14:39] NOTE: TOD reached
FS[14:39] NOTE: Descent started
FS[14:39] GS: 132 knots
FS[14:39] TAS: 134 knots
FS[14:39] IAS: 130 knots
FS[14:39] VS: -661 fpm
FS[14:39] FOB: 359 lbs
FS[14:39] Heading: 303°
FS[14:39] Pitch: 3°
FS[14:39] Bank: 0°
FS[14:39] Aircraft Weight: 2465.18 lbs
FS[14:39] NOTE: On approach
FS[14:45] Flaps: Position 1
FS[14:45] GS: 99 knots
FS[14:45] TAS: 100 knots
FS[14:45] IAS: 99 knots
FS[14:45] VS: 140 fpm
FS[14:48] Autopilot: Disengaged
FS[14:48] AGL: 758 ft
FS[14:48] AMSL: 997 ft
FS[14:48] Autopilot: Engaged
FS[14:48] AGL: 768 ft
FS[14:48] AMSL: 994 ft
FS[14:48] Autopilot: Disengaged
FS[14:48] AGL: 768 ft
FS[14:48] AMSL: 994 ft
FS[14:48] Flaps: Position 2
FS[14:48] GS: 73 knots
FS[14:48] TAS: 75 knots
FS[14:48] IAS: 74 knots
FS[14:48] VS: -882 fpm
FS[14:49] NOTE: ----- LANDED -----
FS[14:49] Landing Rate: -297.58 fpm
FS[14:49] GS: 52 knots
FS[14:49] TAS: 53 knots
FS[14:49] IAS: 53 knots
FS[14:49] VS: -290 fpm
FS[14:49] FOB: 347 lbs
FS[14:49] Heading: 148°
FS[14:49] Pitch: 5°
FS[14:49] Bank: 0°
FS[14:49] Aircraft Weight: 2452.10 lbs
FS[14:49] Nearest Airport: 16K
FS[14:49] Distance: 0.77 miles
FS[14:49] Runway: ???
FS[14:49] Ground Surface: Water
FS[14:49] Ground Condition: Normal
FS[14:49] NOTE: Weather Report
FS[14:49] Wind Heading: 338°
FS[14:49] Wind Speed: 0 knots
FS[14:49] OAT: 14° C
FS[14:49] TAT: 15° C
FS[14:49] Precipitation: None
FS[14:49] Dew Point: 4° C
FS[14:49] Visibility: 62 miles
FS[14:49] METAR: KPBF 060253Z AUTO 00000KT 10SM CLR 19/16 A3005 RMK AO2 SLP174 T01890161 53013KPBG 060253Z AUTO 00000KT 10SM CLR 12/07 A2995 RMK AO2 SLP143 T01220067 50006KPBH 060315Z AUTO 00000KT 10SM SCT120 13/04 A2996 RMK AO2 T01340044KPBI 060253Z 15008KT 10SM SCT017 BKN250 25/23 A2998 RMK AO2 SLP150 T02500228 52016KPBX 060315Z AUTO 00000KT 10SM -RA OVC095 14/14 A3001 RMK AO2 T01410141
FS[14:49] View Mode: Spot Plane
FS[14:49] Flaps: Position 0
FS[14:49] NOTE: Taxi started
FS[14:55] Main Door Open
FS[14:55] NOTE: Arrived
FS[14:55] Parking Brake: Engaged
FS[14:56] Main Door Closed
FS[14:57] Parking Brake: Released
FS[14:58] Flaps: Position 1
FS[14:58] Autopilot: Engaged
FS[14:58] AGL: 72 ft
FS[14:58] AMSL: 72 ft
FS[14:58] Flaps: Position 0
FS[14:58] GS: 79 knots
FS[14:58] TAS: 80 knots
FS[14:58] IAS: 80 knots
FS[14:58] VS: 1225 fpm
FS[14:58] View Mode: Spot Plane
FS[14:59] Recovery: Flight Saved
FS[15:16] Autopilot: Disengaged
FS[15:16] AGL: 1010 ft
FS[15:16] AMSL: 1010 ft
FS[15:16] Flaps: Position 1
FS[15:16] GS: 101 knots
FS[15:16] TAS: 101 knots
FS[15:16] IAS: 100 knots
FS[15:16] VS: 86 fpm
FS[15:17] Flaps: Position 2
FS[15:17] GS: 85 knots
FS[15:17] TAS: 87 knots
FS[15:17] IAS: 86 knots
FS[15:17] VS: -738 fpm
FS[15:18] NOTE: ----- LANDED -----
FS[15:18] Landing Rate: -129.95 fpm
FS[15:18] GS: 56 knots
FS[15:18] TAS: 56 knots
FS[15:18] IAS: 56 knots
FS[15:18] VS: -125 fpm
FS[15:18] FOB: 315 lbs
FS[15:18] Heading: 150°
FS[15:18] Pitch: 3°
FS[15:18] Bank: 0°
FS[15:18] Aircraft Weight: 2421.03 lbs
FS[15:18] Nearest Airport: KPB
FS[15:18] Distance: 0.42 miles
FS[15:18] Runway: ???
FS[15:18] Ground Surface: Water
FS[15:18] Ground Condition: Normal
FS[15:18] NOTE: Weather Report
FS[15:18] Wind Heading: 338°
FS[15:18] Wind Speed: 0 knots
FS[15:18] OAT: 15° C
FS[15:18] TAT: 15° C
FS[15:18] Precipitation: None
FS[15:18] Dew Point: 4° C
FS[15:18] Visibility: 62 miles
FS[15:18] METAR: KPBF 060253Z AUTO 00000KT 10SM CLR 19/16 A3005 RMK AO2 SLP174 T01890161 53013KPBG 060253Z AUTO 00000KT 10SM CLR 12/07 A2995 RMK AO2 SLP143 T01220067 50006KPBH 060315Z AUTO 00000KT 10SM SCT120 13/04 A2996 RMK AO2 T01340044KPBI 060253Z 15008KT 10SM SCT017 BKN250 25/23 A2998 RMK AO2 SLP150 T02500228 52016KPBX 060315Z AUTO 00000KT 10SM -RA OVC095 14/14 A3001 RMK AO2 T01410141
FS[15:18] View Mode: Spot Plane
FS[15:18] Flaps: Position 0
FS[15:21] Landing Gear: Extended
FS[15:21] Landing Gear: Retracted
FS[15:23] Landing Gear: Extended
FS[15:23] Landing Gear: Retracted
FS[15:25] Engine 1: Stopped
FS[15:25] Main Door Open
FS[15:25] Parking Brake: Engaged
FS[15:26] FS: Paused
FS[15:26] Gate: n/a
FS[15:26] NOTE: Flight Completed
FS[15:26] FS Aircraft: C185F SKYWAGON AMPHIBIAN BWEP N185MM
FS[15:26] FS Model: C185
FS[15:26] FS Type: Cessna
FS[15:26] FOB: 314 lbs
FS[15:26] Fuel Used: 70 lbs
FS[15:26] Flight Time: 00:59:55
FS[15:26] Flight Time (Dawn): 00:00:00
FS[15:26] Flight Time (Day): 00:59:55
FS[15:26] Flight Time (Dusk): 00:00:00
FS[15:26] Flight Time (Night): 00:00:00
FS[15:26] Total Landings: 2
FS[15:26] MaxSim Rate: 0x
FS[15:26] Cigar Box - 1.1.4.0
FS[15:26] ----- Flight Closed -----

Route Map